Time;durP1;ratioP1;P1;durP2;ratioP2;P2;SDS_P1;SDS_P2;PMS_P1;PMS_P2;Temp;Humidity;BMP_temperature;BMP_pressure;BME280_temperature;BME280_humidity;BME280_pressure;Samples;Min_cycle;Max_cycle;Signal;HPM_P1;HPM_P2
2024/01/15 00:02:03;;;;;;;;;50.00;40.00;;;;;2.15;69.55;100677.88;4980231;28;45313;-67
2024/01/15 00:04:28;;;;;;;;;57.50;41.00;;;;;2.06;68.79;100661.19;4979922;28;45391;-66
2024/01/15 00:06:55;;;;;;;;;55.25;40.50;;;;;2.10;68.96;100657.91;4979127;28;45288;-64
2024/01/15 00:09:20;;;;;;;;;51.25;38.00;;;;;2.10;69.43;100655.31;4978782;28;45437;-63
2024/01/15 00:11:46;;;;;;;;;55.75;41.00;;;;;2.17;69.06;100658.13;4978831;28;46363;-63
2024/01/15 00:14:14;;;;;;;;;51.75;41.75;;;;;2.19;68.97;100644.44;4978796;28;45498;-62
2024/01/15 00:16:40;;;;;;;;;52.75;39.25;;;;;2.21;69.91;100645.38;4978953;28;45553;-64
2024/01/15 00:19:06;;;;;;;;;57.00;42.00;;;;;2.24;68.95;100635.13;4977848;28;45498;-64
2024/01/15 00:21:31;;;;;;;;;50.75;38.50;;;;;2.26;69.07;100636.06;4977282;28;45516;-63
2024/01/15 00:23:57;;;;;;;;;52.75;40.00;;;;;2.29;69.02;100633.56;4979599;28;45520;-62
2024/01/15 00:26:22;;;;;;;;;48.25;37.25;;;;;2.28;69.22;100625.78;4978583;28;45416;-62
2024/01/15 00:28:48;;;;;;;;;54.33;40.67;;;;;2.25;69.34;100625.66;4978671;28;45413;-63
2024/01/15 00:31:16;;;;;;;;;50.25;40.25;;;;;2.30;68.96;100631.84;4978132;28;46192;-63
2024/01/15 00:33:42;;;;;;;;;50.50;38.50;;;;;2.22;69.17;100616.09;4978655;28;45414;-64
2024/01/15 00:36:08;;;;;;;;;54.25;38.75;;;;;2.32;69.18;100627.63;4978980;28;45406;-63
2024/01/15 00:38:33;;;;;;;;;51.25;38.25;;;;;2.36;69.37;100631.22;4978742;28;45688;-62
2024/01/15 00:40:59;;;;;;;;;55.00;40.75;;;;;2.32;69.35;100606.94;4978187;28;47290;-62
2024/01/15 00:43:24;;;;;;;;;49.75;39.00;;;;;2.36;68.96;100613.13;4967299;28;45250;-65
2024/01/15 00:45:50;;;;;;;;;51.00;39.50;;;;;2.35;68.46;100607.06;4974213;28;45465;-66
2024/01/15 00:48:15;;;;;;;;;43.75;36.00;;;;;2.32;69.33;100601.78;4978657;28;45459;-64
2024/01/15 00:50:41;;;;;;;;;54.00;39.00;;;;;2.36;68.62;100605.34;4978617;28;46428;-63
2024/01/15 00:53:06;;;;;;;;;53.00;41.50;;;;;2.35;68.86;100607.06;4978702;28;45418;-63
2024/01/15 00:55:32;;;;;;;;;51.00;38.00;;;;;2.36;69.38;100607.94;4978731;28;45442;-65
2024/01/15 00:57:57;;;;;;;;;49.50;38.00;;;;;2.34;69.01;100600.13;4978785;28;46268;-64
2024/01/15 01:00:23;;;;;;;;;49.25;39.25;;;;;2.36;69.44;100607.94;4976268;28;47622;-63
2024/01/15 01:02:48;;;;;;;;;49.50;36.75;;;;;2.30;69.16;100582.75;4978181;28;45276;-64
2024/01/15 01:05:14;;;;;;;;;48.50;36.75;;;;;2.31;69.63;100594.88;4979275;28;45371;-63
2024/01/15 01:07:39;;;;;;;;;48.50;37.50;;;;;2.26;69.87;100584.38;4979756;28;45346;-64
2024/01/15 01:10:06;;;;;;;;;49.75;37.00;;;;;2.25;69.82;100574.84;4979376;28;45475;-64
2024/01/15 01:12:32;;;;;;;;;53.25;39.75;;;;;2.25;69.87;100569.69;4979369;28;45409;-64
2024/01/15 01:14:58;;;;;;;;;49.00;38.25;;;;;2.35;69.74;100581.22;4977638;28;45402;-64
2024/01/15 01:17:25;;;;;;;;;52.25;38.75;;;;;2.39;69.32;100585.66;4976965;28;45642;-64
2024/01/15 01:19:50;;;;;;;;;50.75;35.50;;;;;2.38;69.46;100578.72;4978662;28;46273;-64
2024/01/15 01:22:16;;;;;;;;;42.75;34.25;;;;;2.45;69.56;100591.03;4977602;28;45374;-63
2024/01/15 01:24:41;;;;;;;;;50.00;39.00;;;;;2.45;69.07;100593.63;4978100;28;45447;-64
2024/01/15 01:27:07;;;;;;;;;50.25;38.25;;;;;2.41;68.95;100578.81;4977756;28;45560;-64
2024/01/15 01:29:33;;;;;;;;;50.00;38.25;;;;;2.49;68.95;100585.13;4978563;28;45527;-63
2024/01/15 01:31:58;;;;;;;;;56.00;42.50;;;;;2.43;69.08;100574.59;4978594;28;45356;-64
2024/01/15 01:34:24;;;;;;;;;50.50;38.50;;;;;2.48;68.93;100579.91;4977455;28;45329;-62
2024/01/15 01:36:49;;;;;;;;;51.50;38.25;;;;;2.47;69.19;100583.34;4977700;28;45368;-63
2024/01/15 01:39:15;;;;;;;;;51.50;37.25;;;;;2.38;69.09;100565.81;4978095;28;46113;-65
2024/01/15 01:41:40;;;;;;;;;44.25;36.50;;;;;2.32;69.58;100574.22;4977578;28;45478;-63
2024/01/15 01:44:07;;;;;;;;;51.50;39.25;;;;;2.36;69.35;100575.22;4977521;28;45439;-65
2024/01/15 01:46:34;;;;;;;;;49.50;37.50;;;;;2.40;68.99;100576.22;4975852;28;45546;-64
2024/01/15 01:49:05;;;;;;;;;50.00;40.00;;;;;2.42;69.56;100574.53;4976313;28;46638;-63
2024/01/15 01:51:31;;;;;;;;;48.00;36.75;;;;;2.40;69.07;100566.75;4978340;28;45428;-64
2024/01/15 01:53:56;;;;;;;;;51.50;36.75;;;;;2.45;69.52;100567.75;4979009;28;45447;-63
2024/01/15 01:56:22;;;;;;;;;49.50;37.25;;;;;2.46;69.31;100566.03;4977788;28;45332;-63
2024/01/15 01:58:48;;;;;;;;;45.50;35.00;;;;;2.47;69.16;100568.69;4976967;28;45431;-64
2024/01/15 02:01:15;;;;;;;;;49.25;37.50;;;;;2.42;69.47;100551.25;4975725;28;45561;-64
2024/01/15 02:03:41;;;;;;;;;50.50;36.00;;;;;2.49;69.24;100564.44;4977281;28;45402;-63
2024/01/15 02:06:06;;;;;;;;;38.75;33.50;;;;;2.43;69.69;100551.31;4977700;28;45459;-63
2024/01/15 02:08:32;;;;;;;;;46.00;35.25;;;;;2.48;69.06;100548.88;4977652;28;45911;-62
2024/01/15 02:10:58;;;;;;;;;53.00;38.50;;;;;2.54;69.48;100554.25;4976918;28;45380;-64
2024/01/15 02:13:23;;;;;;;;;49.75;37.25;;;;;2.56;70.02;100544.81;4977723;28;45186;-63
2024/01/15 02:15:49;;;;;;;;;50.50;38.00;;;;;2.58;70.04;100547.47;4977500;28;45442;-63
2024/01/15 02:18:14;;;;;;;;;51.75;37.75;;;;;2.55;69.67;100533.59;4977250;28;46014;-63
2024/01/15 02:20:40;;;;;;;;;49.25;36.50;;;;;2.50;70.53;100519.66;4976718;28;45335;-63
2024/01/15 02:23:13;;;;;;;;;46.25;36.00;;;;;2.45;69.52;100526.41;4976856;28;45553;-64
2024/01/15 02:25:46;;;;;;;;;49.50;38.50;;;;;2.30;69.99;100513.88;4976755;28;45380;-63
2024/01/15 02:28:14;;;;;;;;;50.00;38.00;;;;;2.39;70.59;100522.75;4976677;28;46749;-63
2024/01/15 02:30:41;;;;;;;;;49.50;37.00;;;;;2.33;70.13;100513.09;4977701;28;45355;-64
2024/01/15 02:33:08;;;;;;;;;51.50;36.75;;;;;2.26;71.05;100501.69;4975721;28;45377;-63
2024/01/15 02:35:36;;;;;;;;;51.75;39.75;;;;;2.22;71.01;100510.16;4992008;28;45452;-62
2024/01/15 02:38:02;;;;;;;;;47.75;37.00;;;;;2.23;71.45;100514.50;4976765;28;45415;-62
2024/01/15 02:40:28;;;;;;;;;49.75;38.75;;;;;2.26;70.65;100516.31;4976485;28;45474;-63
2024/01/15 02:42:53;;;;;;;;;48.25;36.00;;;;;2.25;70.53;100504.19;4977456;28;45429;-63
2024/01/15 02:45:20;;;;;;;;;51.75;38.25;;;;;2.22;70.23;100509.28;4976995;28;45369;-63
2024/01/15 02:47:45;;;;;;;;;50.50;35.25;;;;;2.27;70.52;100518.06;4976855;28;46647;-63
2024/01/15 02:50:11;;;;;;;;;42.00;33.00;;;;;2.34;70.66;100525.19;4976485;28;45276;-64
2024/01/15 02:52:36;;;;;;;;;49.75;38.00;;;;;2.33;70.01;100524.31;4976702;28;45265;-64
2024/01/15 02:55:02;;;;;;;;;42.75;34.25;;;;;2.36;70.58;100520.06;4976385;28;45419;-63
2024/01/15 02:57:27;;;;;;;;;51.25;38.75;;;;;2.06;70.21;100472.59;4976138;28;46041;-62
2024/01/15 02:59:53;;;;;;;;;49.50;36.00;;;;;2.42;70.88;100530.56;4977551;28;45424;-63
2024/01/15 03:02:18;;;;;;;;;43.25;33.50;;;;;2.44;70.45;100529.78;4976819;28;45402;-64
2024/01/15 03:04:44;;;;;;;;;42.50;32.00;;;;;2.45;70.75;100521.22;4977897;28;46649;-63
2024/01/15 03:07:10;;;;;;;;;49.00;35.25;;;;;2.47;70.61;100522.16;4976603;28;45437;-62
2024/01/15 03:09:36;;;;;;;;;41.50;36.00;;;;;2.45;70.26;100515.19;4975124;28;45433;-63
2024/01/15 03:12:01;;;;;;;;;48.00;33.50;;;;;2.49;70.68;100533.44;4976643;28;45332;-63
2024/01/15 03:14:27;;;;;;;;;48.00;35.50;;;;;2.51;70.39;100525.69;4976658;28;45588;-62
2024/01/15 03:16:53;;;;;;;;;44.50;33.50;;;;;2.48;70.63;100516.16;4976340;28;46396;-64
2024/01/15 03:19:19;;;;;;;;;45.50;35.00;;;;;2.49;69.68;100515.34;4977107;28;45470;-64
2024/01/15 03:21:44;;;;;;;;;43.75;36.75;;;;;2.52;69.67;100523.19;4976262;28;45209;-64
2024/01/15 03:24:10;;;;;;;;;49.00;37.50;;;;;2.54;70.49;100521.53;4976175;28;45661;-63
2024/01/15 03:26:35;;;;;;;;;48.50;35.25;;;;;2.47;70.97;100521.28;4978488;28;46182;-64
2024/01/15 03:29:01;;;;;;;;;42.50;34.00;;;;;2.44;71.11;100518.59;4978146;28;45656;-62
2024/01/15 03:31:26;;;;;;;;;38.25;31.75;;;;;2.37;70.90;100520.09;4979195;28;45597;-63
2024/01/15 03:33:52;;;;;;;;;40.00;33.75;;;;;2.48;70.87;100538.53;4979605;28;45418;-63
2024/01/15 03:36:17;;;;;;;;;46.00;36.00;;;;;2.51;70.43;100538.63;4979337;28;45868;-62
2024/01/15 03:38:43;;;;;;;;;50.75;37.75;;;;;2.51;70.79;100525.69;4977714;28;45479;-63
2024/01/15 03:41:09;;;;;;;;;39.25;34.75;;;;;2.54;71.13;100541.34;4979245;28;45332;-63
2024/01/15 03:43:34;;;;;;;;;51.25;37.75;;;;;2.55;71.22;100530.16;4979618;28;45590;-64
2024/01/15 03:46:00;;;;;;;;;47.00;37.50;;;;;2.56;71.09;100521.53;4979967;28;45505;-64
2024/01/15 03:48:25;;;;;;;;;39.50;34.00;;;;;2.52;71.12;100510.25;4979400;28;45445;-63
2024/01/15 03:50:51;;;;;;;;;43.50;32.25;;;;;2.67;71.44;100524.47;4977954;28;45383;-64
2024/01/15 03:53:16;;;;;;;;;41.75;35.50;;;;;2.65;71.70;100515.78;4979083;28;45550;-65
2024/01/15 03:55:42;;;;;;;;;47.25;35.75;;;;;2.73;70.98;100525.53;4980499;28;45987;-63
2024/01/15 03:58:08;;;;;;;;;40.50;32.00;;;;;2.69;70.92;100508.16;4980537;28;45446;-64
2024/01/15 04:00:34;;;;;;;;;37.00;28.00;;;;;2.79;71.51;100513.63;4980554;28;45459;-64
2024/01/15 04:03:00;;;;;;;;;41.25;31.25;;;;;2.84;71.47;100515.50;4980719;28;45352;-64
2024/01/15 04:05:27;;;;;;;;;42.00;32.00;;;;;2.79;71.56;100495.53;4978809;28;45506;-63
2024/01/15 04:07:52;;;;;;;;;38.00;28.50;;;;;2.83;71.45;100489.63;4978989;28;45325;-63
2024/01/15 04:10:18;;;;;;;;;42.50;31.50;;;;;2.82;71.25;100480.06;4978957;28;45412;-63
2024/01/15 04:12:46;;;;;;;;;38.25;27.00;;;;;2.90;72.54;100484.66;4978668;28;45446;-63
2024/01/15 04:15:12;;;;;;;;;37.25;31.75;;;;;2.92;72.03;100484.72;4979053;28;45991;-63
2024/01/15 04:17:38;;;;;;;;;37.00;31.50;;;;;2.91;71.81;100481.22;4978735;28;45469;-62
2024/01/15 04:20:04;;;;;;;;;43.50;33.00;;;;;2.91;72.42;100477.75;4979128;28;46259;-64
2024/01/15 04:22:29;;;;;;;;;42.75;31.50;;;;;2.92;72.51;100480.41;4965121;28;45303;-63
2024/01/15 04:24:55;;;;;;;;;43.75;32.75;;;;;2.88;72.26;100478.56;4978668;28;45498;-63
2024/01/15 04:27:20;;;;;;;;;46.75;34.75;;;;;2.91;72.37;100472.59;4993929;28;45314;-64
2024/01/15 04:29:46;;;;;;;;;41.75;34.25;;;;;2.78;72.80;100458.44;4978820;28;45290;-64
2024/01/15 04:32:12;;;;;;;;;40.75;31.50;;;;;2.82;72.65;100468.03;4978926;28;45376;-63
2024/01/15 04:34:37;;;;;;;;;39.25;31.50;;;;;2.92;72.49;100472.66;4979793;28;45380;-64
2024/01/15 04:37:03;;;;;;;;;32.00;27.50;;;;;2.82;72.62;100443.88;4978886;28;45977;-63
2024/01/15 04:39:29;;;;;;;;;41.25;30.50;;;;;2.96;72.16;100463.25;4978781;28;45464;-65
2024/01/15 04:41:54;;;;;;;;;41.25;28.50;;;;;2.92;72.28;100458.84;4977569;28;45470;-66
2024/01/15 04:44:20;;;;;;;;;34.00;25.25;;;;;3.01;72.46;100463.38;4978347;28;45529;-64
2024/01/15 04:46:45;;;;;;;;;32.50;27.00;;;;;3.00;72.82;100465.09;4976963;28;45617;-64
2024/01/15 04:49:11;;;;;;;;;31.00;26.75;;;;;3.00;72.82;100466.81;4977083;28;45455;-65
2024/01/15 04:51:37;;;;;;;;;38.75;33.00;;;;;3.01;72.93;100460.78;4978521;28;45340;-65
2024/01/15 04:54:03;;;;;;;;;33.50;28.25;;;;;3.01;72.74;100459.06;4978174;28;45356;-66
2024/01/15 04:56:28;;;;;;;;;30.50;24.50;;;;;2.90;72.99;100438.09;4977190;28;45409;-65
2024/01/15 04:58:54;;;;;;;;;33.75;26.50;;;;;3.02;72.40;100460.84;4978654;28;45274;-65
2024/01/15 05:01:20;;;;;;;;;30.50;28.00;;;;;3.05;73.07;100466.09;4978212;28;45459;-64
2024/01/15 05:03:45;;;;;;;;;20.75;20.75;;;;;3.07;72.59;100454.09;4978827;28;46218;-64
2024/01/15 05:06:11;;;;;;;;;34.50;28.00;;;;;3.02;72.71;100453.09;4977911;28;45463;-65
2024/01/15 05:08:36;;;;;;;;;26.50;23.50;;;;;3.10;73.29;100451.56;4976735;28;45423;-64
2024/01/15 05:11:02;;;;;;;;;26.25;23.50;;;;;3.08;72.85;100447.19;4978122;28;45846;-65
2024/01/15 05:13:28;;;;;;;;;30.00;25.25;;;;;3.02;72.92;100447.03;4977765;28;46454;-66
2024/01/15 05:15:53;;;;;;;;;36.25;26.25;;;;;3.05;72.97;100449.69;4964578;28;45540;-64
2024/01/15 05:18:19;;;;;;;;;34.00;24.25;;;;;3.04;73.87;100453.09;4979147;28;45361;-65
2024/01/15 05:20:44;;;;;;;;;33.75;29.00;;;;;3.07;72.92;100456.66;4979514;28;45432;-66
2024/01/15 05:23:10;;;;;;;;;30.50;27.25;;;;;2.98;73.41;100444.34;4979450;28;45312;-65
2024/01/15 05:25:35;;;;;;;;;38.50;29.75;;;;;3.05;72.97;100458.34;4978728;28;45454;-65
2024/01/15 05:28:02;;;;;;;;;35.50;27.00;;;;;3.05;73.79;100447.97;4977898;28;45340;-64
2024/01/15 05:30:27;;;;;;;;;34.75;25.50;;;;;3.04;73.40;100453.09;4978699;28;45331;-65
2024/01/15 05:32:54;;;;;;;;;38.00;28.50;;;;;3.00;73.47;100443.53;4978721;28;46226;-63
2024/01/15 05:35:19;;;;;;;;;35.75;30.25;;;;;3.06;73.16;100443.69;4993153;28;45415;-65
2024/01/15 05:37:45;;;;;;;;;38.75;26.25;;;;;2.99;73.49;100427.13;4977708;28;45400;-64
2024/01/15 05:40:12;;;;;;;;;28.50;23.00;;;;;3.05;73.48;100432.47;4976654;28;45372;-64
2024/01/15 05:42:39;;;;;;;;;36.00;26.00;;;;;3.07;73.22;100432.50;4978162;28;46204;-64
2024/01/15 05:45:05;;;;;;;;;35.50;27.50;;;;;3.10;73.01;100430.00;4978388;28;45494;-65
2024/01/15 05:47:30;;;;;;;;;32.00;24.50;;;;;3.07;73.25;100433.38;4977438;28;45429;-65
2024/01/15 05:49:57;;;;;;;;;34.75;29.00;;;;;3.09;73.57;100438.63;4976986;28;45436;-65
2024/01/15 05:52:23;;;;;;;;;31.00;26.25;;;;;2.96;74.44;100406.34;4978826;28;45427;-64
2024/01/15 05:54:49;;;;;;;;;27.00;23.75;;;;;3.06;74.34;100420.38;4977675;28;45518;-66
2024/01/15 05:57:15;;;;;;;;;27.75;23.75;;;;;3.10;73.87;100428.28;4977264;28;45351;-64
2024/01/15 05:59:41;;;;;;;;;36.25;28.75;;;;;3.14;74.55;100421.50;4977293;28;45532;-64
2024/01/15 06:02:07;;;;;;;;;29.75;26.50;;;;;3.05;74.47;100410.88;4975731;28;48000;-64
2024/01/15 06:04:32;;;;;;;;;33.50;25.25;;;;;3.15;74.42;100429.28;4977036;28;45540;-65
2024/01/15 06:06:58;;;;;;;;;31.00;25.50;;;;;3.11;74.05;100427.47;4977576;28;45339;-65
2024/01/15 06:09:23;;;;;;;;;33.00;23.50;;;;;3.09;74.34;100428.25;4976978;28;45399;-66
2024/01/15 06:11:49;;;;;;;;;34.50;22.25;;;;;2.95;74.15;100396.81;4977284;28;45568;-64
2024/01/15 06:14:14;;;;;;;;;37.25;28.00;;;;;3.07;74.44;100429.91;4963471;28;45343;-66
2024/01/15 06:16:40;;;;;;;;;33.25;26.50;;;;;3.01;74.53;100420.25;4977000;28;45504;-66
2024/01/15 06:19:05;;;;;;;;;32.75;25.25;;;;;3.01;75.20;100428.03;4978145;28;45482;-66
2024/01/15 06:21:31;;;;;;;;;30.75;24.00;;;;;3.00;75.16;100422.81;4978235;28;45463;-66
2024/01/15 06:23:57;;;;;;;;;30.50;24.50;;;;;2.97;74.78;100414.16;4978382;28;45498;-66
2024/01/15 06:26:23;;;;;;;;;35.50;26.25;;;;;3.06;74.95;100412.63;4977928;28;45499;-65
2024/01/15 06:28:49;;;;;;;;;34.25;25.00;;;;;3.09;75.61;100428.25;4975709;28;45496;-65
2024/01/15 06:31:14;;;;;;;;;32.50;19.25;;;;;3.09;74.43;100421.38;4975122;28;45512;-64
2024/01/15 06:33:40;;;;;;;;;31.50;24.50;;;;;3.09;75.38;100411.00;4977857;28;45484;-64
2024/01/15 06:36:06;;;;;;;;;29.25;23.25;;;;;3.16;75.15;100427.59;4978297;28;45339;-66
2024/01/15 06:38:31;;;;;;;;;28.00;23.00;;;;;3.20;75.34;100432.00;4977517;28;45276;-66
2024/01/15 06:40:57;;;;;;;;;27.75;24.25;;;;;3.18;75.26;100423.34;4978415;28;45752;-67
2024/01/15 06:43:22;;;;;;;;;27.50;20.75;;;;;3.21;75.13;100423.41;4978101;28;45492;-64
2024/01/15 06:45:48;;;;;;;;;27.00;24.00;;;;;3.29;75.26;100439.13;4977589;28;45426;-66
2024/01/15 06:48:16;;;;;;;;;28.75;22.75;;;;;3.24;75.34;100426.06;4976301;28;45365;-65
2024/01/15 06:50:44;;;;;;;;;31.50;23.75;;;;;3.35;75.08;100434.13;4967894;28;47632;-65
2024/01/15 06:53:10;;;;;;;;;29.50;25.75;;;;;3.40;75.30;100424.78;4978100;28;45378;-64
2024/01/15 06:55:37;;;;;;;;;27.75;22.00;;;;;3.37;75.76;100417.81;4976666;28;45563;-63
2024/01/15 06:58:03;;;;;;;;;30.00;25.25;;;;;3.38;75.35;100424.72;4976853;28;45446;-65
2024/01/15 07:00:29;;;;;;;;;28.00;22.25;;;;;3.39;74.82;100429.09;4978690;28;46088;-65
2024/01/15 07:02:55;;;;;;;;;32.75;23.75;;;;;3.42;75.28;100438.63;4979796;28;45491;-65
2024/01/15 07:05:21;;;;;;;;;23.50;21.00;;;;;3.41;74.88;100431.69;4979731;28;45390;-64
2024/01/15 07:07:47;;;;;;;;;28.50;27.25;;;;;3.49;74.94;100442.22;4981548;28;45453;-64
2024/01/15 07:10:13;;;;;;;;;30.75;25.50;;;;;3.48;74.50;100432.72;4980055;28;45360;-64
2024/01/15 07:12:38;;;;;;;;;28.00;23.50;;;;;3.51;74.88;100437.97;4993982;28;45662;-64
2024/01/15 07:15:07;;;;;;;;;28.25;22.50;;;;;3.40;75.22;100412.69;4978267;28;45443;-65
2024/01/15 07:17:33;;;;;;;;;34.25;25.75;;;;;3.40;74.75;100407.50;4979980;28;45323;-64
2024/01/15 07:19:58;;;;;;;;;31.00;25.25;;;;;3.48;74.25;100412.88;4979467;28;46267;-64
2024/01/15 07:22:24;;;;;;;;;34.00;27.00;;;;;3.56;74.28;100423.44;4979325;28;45557;-64
2024/01/15 07:24:49;;;;;;;;;33.00;28.50;;;;;3.51;74.84;100414.66;4977935;28;45489;-64
2024/01/15 07:27:16;;;;;;;;;31.75;24.50;;;;;3.56;74.90;100441.56;4994571;28;45921;-64
2024/01/15 07:29:42;;;;;;;;;32.25;27.50;;;;;3.58;74.57;100445.06;4978966;28;45548;-64
2024/01/15 07:32:09;;;;;;;;;26.75;23.25;;;;;3.49;74.45;100427.59;4978114;28;45688;-64
2024/01/15 07:34:36;;;;;;;;;30.25;24.25;;;;;3.60;74.18;100457.22;4979820;28;45407;-64
2024/01/15 07:37:02;;;;;;;;;30.50;25.75;;;;;3.55;74.66;100443.28;4978812;28;45435;-65
2024/01/15 07:39:28;;;;;;;;;32.00;27.00;;;;;3.56;74.50;100446.72;4978150;28;46563;-64
2024/01/15 07:41:54;;;;;;;;;32.25;26.75;;;;;3.63;74.88;100455.53;4979567;28;45536;-64
2024/01/15 07:44:20;;;;;;;;;38.25;27.25;;;;;3.65;74.15;100459.06;4978988;28;45469;-65
2024/01/15 07:46:46;;;;;;;;;32.75;30.00;;;;;3.64;74.09;100463.38;4977530;28;45482;-64
2024/01/15 07:49:13;;;;;;;;;31.50;27.00;;;;;3.62;74.38;100459.84;4979165;28;45597;-65
2024/01/15 07:51:40;;;;;;;;;31.75;25.25;;;;;3.47;74.13;100436.16;4979716;28;45459;-64
2024/01/15 07:54:07;;;;;;;;;29.75;23.25;;;;;3.63;74.26;100460.72;4991019;28;45492;-64
2024/01/15 07:56:33;;;;;;;;;30.75;28.00;;;;;3.57;74.48;100453.69;4969362;28;45545;-65
2024/01/15 07:58:59;;;;;;;;;36.25;27.25;;;;;3.61;74.51;100468.47;4979861;28;46255;-65
2024/01/15 08:01:24;;;;;;;;;37.50;27.00;;;;;3.65;74.60;100475.47;4978628;28;45439;-65
2024/01/15 08:03:50;;;;;;;;;34.25;26.50;;;;;3.67;73.96;100476.38;4979079;28;45372;-66
2024/01/15 08:06:16;;;;;;;;;32.50;29.25;;;;;3.65;74.22;100470.28;4978881;28;45367;-64
2024/01/15 08:08:42;;;;;;;;;31.25;24.75;;;;;3.72;74.23;100474.78;4978863;28;45320;-64
2024/01/15 08:11:07;;;;;;;;;28.50;20.75;;;;;3.73;74.14;100480.88;4978126;28;45479;-65
2024/01/15 08:13:33;;;;;;;;;37.00;31.75;;;;;3.68;74.42;100483.34;4979302;28;45377;-65
2024/01/15 08:15:59;;;;;;;;;39.00;27.75;;;;;3.70;73.57;100479.06;4978154;28;45663;-65
2024/01/15 08:18:25;;;;;;;;;42.75;30.00;;;;;3.71;73.56;100477.34;4960922;28;45785;-64
2024/01/15 08:20:52;;;;;;;;;32.25;29.00;;;;;3.76;73.59;100489.56;4979003;28;45356;-66
2024/01/15 08:23:17;;;;;;;;;33.00;28.00;;;;;3.59;74.07;100462.38;4978796;28;45391;-65
2024/01/15 08:25:43;;;;;;;;;33.25;26.00;;;;;3.60;74.10;100458.94;4978435;28;45398;-64
2024/01/15 08:28:08;;;;;;;;;34.25;26.75;;;;;3.79;73.44;100481.88;4978052;28;45469;-66
2024/01/15 08:30:34;;;;;;;;;28.50;25.50;;;;;3.81;73.71;100482.78;4978765;28;45442;-63
2024/01/15 08:33:00;;;;;;;;;31.50;27.00;;;;;3.85;73.73;100491.53;4978004;28;45411;-64
2024/01/15 08:35:25;;;;;;;;;31.25;25.25;;;;;3.82;73.16;100489.75;4979741;28;45478;-65
2024/01/15 08:37:54;;;;;;;;;29.75;26.75;;;;;3.79;73.79;100476.69;4976886;28;47512;-64
2024/01/15 08:40:20;;;;;;;;;34.50;27.50;;;;;3.87;73.30;100501.91;4978414;28;45351;-65
2024/01/15 08:42:46;;;;;;;;;32.75;27.25;;;;;3.87;72.79;100499.31;4977995;28;45482;-64
2024/01/15 08:45:12;;;;;;;;;37.25;31.00;;;;;3.93;72.81;100504.66;4978330;28;45561;-64
2024/01/15 08:47:38;;;;;;;;;29.25;25.00;;;;;3.88;72.32;100496.78;4977075;28;46895;-63
2024/01/15 08:50:04;;;;;;;;;32.50;26.25;;;;;3.97;72.13;100514.28;4978605;28;45561;-65
2024/01/15 08:52:30;;;;;;;;;30.25;28.00;;;;;3.93;72.63;100510.72;4978571;28;45678;-63
2024/01/15 08:54:59;;;;;;;;;25.00;19.75;;;;;4.00;72.07;100523.00;4978028;28;45407;-63
2024/01/15 08:57:24;;;;;;;;;32.50;29.50;;;;;4.00;71.50;100528.19;4977916;28;46274;-65
2024/01/15 08:59:51;;;;;;;;;31.75;26.25;;;;;3.98;72.01;100529.84;4973979;28;46712;-64
2024/01/15 09:02:16;;;;;;;;;34.75;29.00;;;;;3.95;71.50;100532.38;4974980;28;45603;-64
2024/01/15 09:04:42;;;;;;;;;27.00;25.50;;;;;4.00;71.96;100535.09;4978137;28;45474;-64
2024/01/15 09:07:08;;;;;;;;;30.75;25.25;;;;;4.04;71.37;100539.50;4977566;28;45629;-64
2024/01/15 09:09:34;;;;;;;;;29.50;26.50;;;;;4.08;71.21;100551.72;4977321;28;45549;-63
2024/01/15 09:12:00;;;;;;;;;23.50;18.25;;;;;4.08;71.09;100546.53;4977800;28;45490;-64
2024/01/15 09:14:26;;;;;;;;;31.75;25.25;;;;;4.11;70.42;100554.38;4976545;28;45812;-65
2024/01/15 09:16:53;;;;;;;;;26.50;21.75;;;;;4.14;70.43;100551.00;4975604;28;47751;-63
2024/01/15 09:19:19;;;;;;;;;30.75;25.75;;;;;4.08;70.04;100541.34;4979011;28;45375;-65
2024/01/15 09:21:44;;;;;;;;;26.50;21.50;;;;;4.18;69.83;100552.81;4977968;28;45705;-62
2024/01/15 09:24:10;;;;;;;;;25.00;22.50;;;;;4.09;69.74;100537.03;4977920;28;45500;-64
2024/01/15 09:26:36;;;;;;;;;31.00;24.50;;;;;3.95;69.55;100514.22;4976993;28;46064;-66
2024/01/15 09:29:02;;;;;;;;;25.25;23.75;;;;;4.24;69.15;100560.75;4977654;28;45366;-64
2024/01/15 09:31:28;;;;;;;;;29.50;22.25;;;;;4.28;68.26;100549.63;4976072;28;45469;-63
2024/01/15 09:33:58;;;;;;;;;24.25;21.25;;;;;4.25;68.20;100542.63;4973476;28;45554;-66
2024/01/15 09:36:24;;;;;;;;;27.50;23.50;;;;;4.33;67.31;100558.38;4977028;28;46314;-64
2024/01/15 09:38:49;;;;;;;;;27.50;23.75;;;;;4.37;67.07;100561.94;4978371;28;45450;-64
2024/01/15 09:41:15;;;;;;;;;29.00;25.25;;;;;4.38;66.49;100550.72;4976637;28;45348;-63
2024/01/15 09:43:41;;;;;;;;;26.25;23.25;;;;;4.43;65.97;100564.66;4977695;28;45464;-62
2024/01/15 09:46:08;;;;;;;;;27.75;24.50;;;;;4.47;66.33;100566.50;4977782;28;45441;-63
2024/01/15 09:48:34;;;;;;;;;37.00;31.25;;;;;4.52;66.42;100564.88;4978073;28;45468;-64
2024/01/15 09:51:01;;;;;;;;;33.25;29.25;;;;;5.51;64.58;100565.31;4977048;28;45371;-64
2024/01/15 09:53:27;;;;;;;;;43.00;32.50;;;;;8.47;60.75;100543.38;4977324;28;45462;-64
2024/01/15 09:55:53;;;;;;;;;36.75;30.50;;;;;11.71;52.51;100550.69;4977208;28;46173;-64
2024/01/15 09:58:19;;;;;;;;;31.50;26.75;;;;;14.38;47.85;100542.50;4977445;28;45368;-65
2024/01/15 10:00:47;;;;;;;;;24.25;20.25;;;;;16.79;42.38;100543.56;4991805;28;45442;-64
2024/01/15 10:03:13;;;;;;;;;24.75;21.75;;;;;18.83;40.16;100513.44;4977208;28;45660;-64
2024/01/15 10:05:39;;;;;;;;;19.50;13.75;;;;;21.01;35.68;100527.81;4977401;28;45730;-63
2024/01/15 10:08:05;;;;;;;;;15.67;11.33;;;;;21.88;33.27;100521.13;4979372;28;45345;-64
2024/01/15 10:10:31;;;;;;;;;13.67;13.67;;;;;20.06;33.52;100543.34;4978591;28;46098;-64
2024/01/15 10:12:58;;;;;;;;;18.00;14.67;;;;;18.47;34.80;100534.97;4978624;28;45531;-65
2024/01/15 10:15:26;;;;;;;;;18.33;13.33;;;;;18.58;35.13;100550.50;4977552;28;46112;-64
2024/01/15 10:17:51;;;;;;;;;14.33;12.67;;;;;20.76;32.45;100542.19;4974974;28;45574;-63
2024/01/15 10:20:17;;;;;;;;;13.00;12.67;;;;;22.91;29.81;100526.63;4977147;28;45512;-64
2024/01/15 10:22:43;;;;;;;;;18.33;15.00;;;;;24.68;28.20;100525.66;4977162;28;45411;-67
2024/01/15 10:25:13;;;;;;;;;21.00;16.33;;;;;26.08;26.28;100516.91;4975374;28;47713;-64
2024/01/15 10:27:41;;;;;;;;;15.00;13.33;;;;;27.28;24.28;100516.75;4976638;28;45363;-64
2024/01/15 10:30:07;;;;;;;;;12.00;10.00;;;;;28.19;22.80;100510.16;4977016;28;45350;-64
2024/01/15 10:32:33;;;;;;;;;13.00;10.00;;;;;29.08;21.98;100508.72;4977481;28;45407;-64
2024/01/15 10:34:59;;;;;;;;;9.75;9.25;;;;;30.01;19.99;100506.53;4975919;28;46219;-64
2024/01/15 10:37:25;;;;;;;;;9.25;7.00;;;;;30.75;19.36;100512.94;4976320;28;45694;-65
2024/01/15 10:39:50;;;;;;;;;8.75;6.50;;;;;31.46;18.74;100518.47;4977842;28;45428;-66
2024/01/15 10:42:17;;;;;;;;;8.00;7.25;;;;;32.16;18.15;100513.97;4976906;28;45470;-66
2024/01/15 10:44:44;;;;;;;;;6.25;6.00;;;;;32.79;16.83;100509.91;4976444;28;45530;-65
2024/01/15 10:47:10;;;;;;;;;4.80;4.80;;;;;33.17;16.64;100503.53;4976475;28;45747;-64
2024/01/15 10:49:36;;;;;;;;;7.20;6.60;;;;;33.45;16.27;100507.13;4991705;28;45612;-65
2024/01/15 10:52:02;;;;;;;;;7.75;7.25;;;;;34.01;16.01;100516.09;4964538;28;45439;-65
2024/01/15 10:54:29;;;;;;;;;8.00;8.00;;;;;34.53;15.90;100504.53;4976584;28;45380;-65
2024/01/15 10:56:56;;;;;;;;;6.40;5.40;;;;;34.93;15.43;100478.63;4976315;28;45390;-64
2024/01/15 10:59:22;;;;;;;;;7.20;5.60;;;;;34.95;14.29;100518.25;4976652;28;45555;-65
2024/01/15 11:01:50;;;;;;;;;6.00;5.20;;;;;35.38;13.16;100511.06;4975350;28;45546;-64
2024/01/15 11:04:16;;;;;;;;;5.00;5.00;;;;;35.28;13.77;100509.47;4977393;28;45331;-64
2024/01/15 11:06:49;;;;;;;;;5.80;5.80;;;;;33.43;14.43;100521.84;4976602;28;45469;-65
2024/01/15 11:09:15;;;;;;;;;8.20;6.20;;;;;34.18;14.50;100523.44;4977071;28;45237;-65
2024/01/15 11:11:49;;;;;;;;;7.40;7.00;;;;;34.98;13.77;100503.50;4977813;28;45483;-65